createdAt,value
2019-05-03T00:00:58.314Z,1010.1896
2019-05-03T00:01:57.728Z,1010.2028
2019-05-03T00:02:58.058Z,1010.1966
2019-05-03T00:03:57.488Z,1010.213
2019-05-03T00:04:56.870Z,1010.1942
2019-05-03T00:06:08.166Z,1010.1902
2019-05-03T00:07:07.840Z,1010.2445
2019-05-03T00:08:07.235Z,1010.2352
2019-05-03T00:09:18.539Z,1010.25
2019-05-03T00:10:17.936Z,1010.2344
2019-05-03T00:11:17.351Z,1010.2593
2019-05-03T00:12:16.796Z,1010.2565
2019-05-03T00:12:28.718Z,1010.2565
2019-05-03T00:13:28.173Z,1010.2733
2019-05-03T00:14:27.618Z,1010.2656
2019-05-03T00:15:27.023Z,1010.2692
2019-05-03T00:16:26.658Z,1010.2828
2019-05-03T00:16:38.551Z,1010.3044
2019-05-03T00:17:38.107Z,1010.2656
2019-05-03T00:18:37.415Z,1010.3088
2019-05-03T00:19:36.977Z,1010.3123
2019-05-03T00:20:48.293Z,1010.3389
2019-05-03T00:21:47.660Z,1010.3768
2019-05-03T00:22:48.102Z,1010.3336
2019-05-03T00:23:47.596Z,1010.3548
2019-05-03T00:24:47.024Z,1010.3217
2019-05-03T00:25:58.250Z,1010.3247
2019-05-03T00:26:46.850Z,1010.3225
2019-05-03T00:26:58.801Z,1010.3532
2019-05-03T00:27:58.300Z,1010.2734
2019-05-03T00:28:57.810Z,1010.3263
2019-05-03T00:29:57.172Z,1010.3128
2019-05-03T00:31:08.475Z,1010.3417
2019-05-03T00:32:07.831Z,1010.3198
2019-05-03T00:33:07.425Z,1010.341
2019-05-03T00:34:07.007Z,1010.2996
2019-05-03T00:35:18.254Z,1010.3024
2019-05-03T00:36:17.787Z,1010.2784
2019-05-03T00:37:17.229Z,1010.2567
2019-05-03T00:38:16.762Z,1010.2747
2019-05-03T00:38:28.716Z,1010.2991
2019-05-03T00:39:28.079Z,1010.3242
2019-05-03T00:40:27.523Z,1010.307
2019-05-03T00:41:27.186Z,1010.3548
2019-05-03T00:42:38.438Z,1010.3573
2019-05-03T00:43:37.889Z,1010.3352
2019-05-03T00:44:37.269Z,1010.3102
2019-05-03T00:45:36.796Z,1010.3303
2019-05-03T00:45:48.634Z,1010.2898
2019-05-03T00:46:48.190Z,1010.3032
2019-05-03T00:47:47.720Z,1010.2746
2019-05-03T00:48:47.139Z,1010.3012
2019-05-03T00:49:46.659Z,1010.2578
2019-05-03T00:49:58.506Z,1010.2659
2019-05-03T00:50:58.028Z,1010.279
2019-05-03T00:51:57.439Z,1010.2745
2019-05-03T00:52:56.979Z,1010.286
2019-05-03T00:54:08.300Z,1010.2753
2019-05-03T00:55:15.957Z,1010.2573
2019-05-03T00:56:08.373Z,1010.2962
2019-05-03T00:57:07.879Z,1010.2684
2019-05-03T00:58:07.331Z,1010.32
2019-05-03T00:59:06.843Z,1010.302
2019-05-03T01:00:17.277Z,1010.2949
2019-05-03T01:01:16.829Z,1010.3093
2019-05-03T01:01:28.670Z,1010.3159
2019-05-03T01:02:28.136Z,1010.3342
2019-05-03T01:03:27.471Z,1010.3654
2019-05-03T01:04:26.952Z,1010.3735
2019-05-03T01:05:38.381Z,1010.3862
2019-05-03T01:06:37.731Z,1010.3555
2019-05-03T01:07:37.071Z,1010.3702
2019-05-03T01:08:36.654Z,1010.3898
2019-05-03T01:08:48.494Z,1010.3624
2019-05-03T01:09:47.894Z,1010.3641
2019-05-03T01:10:47.367Z,1010.3608
2019-05-03T01:11:46.959Z,1010.3815
2019-05-03T01:12:58.241Z,1010.3693
2019-05-03T01:13:57.590Z,1010.4255
2019-05-03T01:14:57.175Z,1010.4268
2019-05-03T01:16:08.506Z,1010.4403
2019-05-03T01:17:07.935Z,1010.4542
2019-05-03T01:18:08.475Z,1010.4107
2019-05-03T01:19:08.051Z,1010.4341
2019-05-03T01:20:07.433Z,1010.4668
2019-05-03T01:21:07.000Z,1010.4577
2019-05-03T01:22:18.441Z,1010.4339
2019-05-03T01:23:17.968Z,1010.4442
2019-05-03T01:24:18.310Z,1010.469
2019-05-03T01:25:29.023Z,1010.4597
2019-05-03T01:26:18.177Z,1010.4375
2019-05-03T01:27:17.643Z,1010.3951
2019-05-03T01:28:17.142Z,1010.4216
2019-05-03T01:29:28.522Z,1010.4804
2019-05-03T01:30:27.897Z,1010.4673
2019-05-03T01:31:28.391Z,1010.4167
2019-05-03T01:32:27.925Z,1010.4282
2019-05-03T01:33:27.479Z,1010.4428
2019-05-03T01:34:27.135Z,1010.4931
2019-05-03T01:35:38.373Z,1010.4416
2019-05-03T01:36:37.688Z,1010.4689
2019-05-03T01:37:37.194Z,1010.464
2019-05-03T01:38:36.787Z,1010.464
2019-05-03T01:38:48.618Z,1010.4935
2019-05-03T01:39:48.085Z,1010.4885
2019-05-03T01:40:47.544Z,1010.4673
2019-05-03T01:41:47.098Z,1010.5128
2019-05-03T01:42:58.547Z,1010.4559
2019-05-03T01:43:58.047Z,1010.5007
2019-05-03T01:44:57.432Z,1010.5321
2019-05-03T01:45:56.919Z,1010.481
2019-05-03T01:47:08.146Z,1010.5158
2019-05-03T01:48:07.777Z,1010.454
2019-05-03T01:49:07.254Z,1010.5381
2019-05-03T01:50:06.670Z,1010.5081
2019-05-03T01:50:18.730Z,1010.5164
2019-05-03T01:51:18.153Z,1010.4929
2019-05-03T01:52:17.627Z,1010.4843
2019-05-03T01:53:17.011Z,1010.4622
2019-05-03T01:54:28.419Z,1010.4304
2019-05-03T01:55:27.902Z,1010.4193
2019-05-03T01:56:27.269Z,1010.4519
2019-05-03T01:57:26.727Z,1010.4824
2019-05-03T01:57:38.668Z,1010.4531
2019-05-03T01:58:38.125Z,1010.4505
2019-05-03T01:59:37.546Z,1010.4528
2019-05-03T02:00:37.129Z,1010.4584
2019-05-03T02:01:36.719Z,1010.4291
2019-05-03T02:01:48.562Z,1010.4165
2019-05-03T02:02:48.196Z,1010.3797
2019-05-03T02:03:47.524Z,1010.3914
2019-05-03T02:04:46.994Z,1010.4179
2019-05-03T02:05:58.295Z,1010.3745
2019-05-03T02:06:57.623Z,1010.3831
2019-05-03T02:07:57.189Z,1010.4185
2019-05-03T02:09:08.480Z,1010.4306
2019-05-03T02:10:07.850Z,1010.3764
2019-05-03T02:11:07.333Z,1010.3997
2019-05-03T02:12:06.861Z,1010.3507
2019-05-03T02:12:18.799Z,1010.3728
2019-05-03T02:13:18.268Z,1010.3594
2019-05-03T02:14:17.855Z,1010.3671
2019-05-03T02:15:17.161Z,1010.3542
2019-05-03T02:16:16.680Z,1010.3342
2019-05-03T02:16:28.655Z,1010.3819
2019-05-03T02:17:28.091Z,1010.3812
2019-05-03T02:18:27.624Z,1010.3354
2019-05-03T02:19:27.087Z,1010.357
2019-05-03T02:20:38.454Z,1010.3897
2019-05-03T02:21:37.954Z,1010.3894
2019-05-03T02:22:37.285Z,1010.3717
2019-05-03T02:23:36.911Z,1010.3292
2019-05-03T02:24:48.376Z,1010.2897
2019-05-03T02:25:55.858Z,1010.3779
2019-05-03T02:26:48.186Z,1010.371
2019-05-03T02:27:47.570Z,1010.3755
2019-05-03T02:28:47.419Z,1010.3996
2019-05-03T02:29:46.807Z,1010.3943
2019-05-03T02:29:58.703Z,1010.394
2019-05-03T02:30:58.113Z,1010.3692
2019-05-03T02:31:57.482Z,1010.3968
2019-05-03T02:32:56.933Z,1010.3897
2019-05-03T02:34:08.424Z,1010.4957
2019-05-03T02:35:07.920Z,1010.562
2019-05-03T02:36:07.376Z,1010.5905
2019-05-03T02:37:06.833Z,1010.6137
2019-05-03T02:38:18.273Z,1010.6112
2019-05-03T02:39:17.648Z,1010.6782
2019-05-03T02:40:20.272Z,1010.6292
2019-05-03T02:41:17.819Z,1010.6054
2019-05-03T02:42:17.191Z,1010.6674
2019-05-03T02:43:16.698Z,1010.6589
2019-05-03T02:43:28.486Z,1010.6589
2019-05-03T02:44:28.030Z,1010.6322
2019-05-03T02:45:27.433Z,1010.6428
2019-05-03T02:46:27.009Z,1010.6596
2019-05-03T02:47:38.437Z,1010.6262
2019-05-03T02:48:37.907Z,1010.6398
2019-05-03T02:49:37.297Z,1010.657
2019-05-03T02:50:36.746Z,1010.6909
2019-05-03T02:50:48.662Z,1010.7248
2019-05-03T02:51:48.259Z,1010.7123
2019-05-03T02:52:47.736Z,1010.71
2019-05-03T02:53:47.079Z,1010.6862
2019-05-03T02:54:46.645Z,1010.7034
2019-05-03T02:54:58.544Z,1010.7019
2019-05-03T02:56:13.653Z,1010.6769
2019-05-03T02:56:58.313Z,1010.6501
2019-05-03T02:57:57.669Z,1010.6038
2019-05-03T02:58:57.318Z,1010.5917
2019-05-03T02:59:56.712Z,1010.5628
2019-05-03T03:00:08.642Z,1010.6412
2019-05-03T03:01:08.036Z,1010.6196
2019-05-03T03:02:07.585Z,1010.6381
2019-05-03T03:03:07.017Z,1010.6509
2019-05-03T03:04:18.272Z,1010.6358
2019-05-03T03:05:17.752Z,1010.6165
2019-05-03T03:06:17.177Z,1010.6367
2019-05-03T03:07:28.514Z,1010.6506
2019-05-03T03:08:27.965Z,1010.6677
2019-05-03T03:09:27.404Z,1010.6199
2019-05-03T03:10:26.912Z,1010.649
2019-05-03T03:10:38.742Z,1010.5686
2019-05-03T03:11:38.348Z,1010.7258
2019-05-03T03:12:37.702Z,1010.6776
2019-05-03T03:13:37.234Z,1010.6535
2019-05-03T03:14:36.652Z,1010.5975
2019-05-03T03:14:48.572Z,1010.5763
2019-05-03T03:15:47.950Z,1010.6765
2019-05-03T03:16:47.407Z,1010.6798
2019-05-03T03:17:47.024Z,1010.6077
2019-05-03T03:18:58.363Z,1010.6667
2019-05-03T03:19:57.732Z,1010.6912
2019-05-03T03:20:57.198Z,1010.5964
2019-05-03T03:21:56.860Z,1010.6638
2019-05-03T03:23:08.206Z,1010.6118
2019-05-03T03:24:07.775Z,1010.6527
2019-05-03T03:25:07.114Z,1010.6727
2019-05-03T03:26:06.633Z,1010.7058
2019-05-03T03:26:33.230Z,1010.6994
2019-05-03T03:27:07.154Z,1010.6882
2019-05-03T03:28:06.671Z,1010.7246
2019-05-03T03:28:18.606Z,1010.7119
2019-05-03T03:29:18.052Z,1010.7391
2019-05-03T03:30:17.530Z,1010.738
2019-05-03T03:31:17.717Z,1010.7081
2019-05-03T03:32:18.465Z,1010.7441
2019-05-03T03:33:18.124Z,1010.7056
2019-05-03T03:34:18.593Z,1010.7648
2019-05-03T03:35:20.588Z,1010.7493
2019-05-03T03:36:49.489Z,1010.7614
2019-05-03T03:37:10.168Z,1010.7487
2019-05-03T03:38:07.268Z,1010.7818
2019-05-03T03:39:06.739Z,1010.7634
2019-05-03T03:39:18.692Z,1010.7993
2019-05-03T03:40:18.337Z,1010.8193
2019-05-03T03:41:17.741Z,1010.8378
2019-05-03T03:42:17.219Z,1010.8204
2019-05-03T03:43:16.687Z,1010.8466
2019-05-03T03:43:28.607Z,1010.8029
2019-05-03T03:44:27.981Z,1010.8499
2019-05-03T03:45:27.529Z,1010.8463
2019-05-03T03:46:26.999Z,1010.8854
2019-05-03T03:47:27.426Z,1010.8998
2019-05-03T03:47:38.556Z,1010.9124
2019-05-03T03:48:38.028Z,1010.9076
2019-05-03T03:49:37.344Z,1010.9185
2019-05-03T03:50:36.861Z,1010.9031
2019-05-03T03:51:48.182Z,1010.8982
2019-05-03T03:52:47.642Z,1010.9048
2019-05-03T03:53:47.212Z,1010.9015
2019-05-03T03:54:46.666Z,1010.8922
2019-05-03T03:54:58.553Z,1010.9096
2019-05-03T03:55:57.987Z,1010.9035
2019-05-03T03:57:03.541Z,1010.897
2019-05-03T03:57:58.122Z,1010.899
2019-05-03T03:58:57.519Z,1010.9494
2019-05-03T03:59:56.973Z,1010.9284
2019-05-03T04:01:08.425Z,1010.9807
2019-05-03T04:02:07.907Z,1010.9578
2019-05-03T04:03:07.388Z,1010.9807
2019-05-03T04:04:06.974Z,1010.9888
2019-05-03T04:05:18.307Z,1011.0502
2019-05-03T04:06:17.667Z,1011.0225
2019-05-03T04:07:18.231Z,1011.0748
2019-05-03T04:08:17.785Z,1011.0609
2019-05-03T04:09:18.231Z,1011.0973
2019-05-03T04:10:17.571Z,1011.1057
2019-05-03T04:11:17.069Z,1011.145
2019-05-03T04:12:28.508Z,1011.1284
2019-05-03T04:13:28.063Z,1011.1885
2019-05-03T04:14:27.530Z,1011.2115
2019-05-03T04:15:27.130Z,1011.1755
2019-05-03T04:16:26.646Z,1011.2387
2019-05-03T04:16:38.488Z,1011.2318
2019-05-03T04:17:27.024Z,1011.1426
2019-05-03T04:18:38.443Z,1011.2045
2019-05-03T04:19:37.862Z,1011.171
2019-05-03T04:20:37.212Z,1011.2025
2019-05-03T04:21:36.715Z,1011.2143
2019-05-03T04:21:48.551Z,1011.2291
2019-05-03T04:22:47.993Z,1011.2299
2019-05-03T04:23:47.522Z,1011.1579
2019-05-03T04:24:47.006Z,1011.1849
2019-05-03T04:25:58.523Z,1011.2042
2019-05-03T04:27:13.296Z,1011.1911
2019-05-03T04:27:58.475Z,1011.171
2019-05-03T04:28:58.013Z,1011.1433
2019-05-03T04:29:57.509Z,1011.1887
2019-05-03T04:30:56.864Z,1011.171
2019-05-03T04:31:08.751Z,1011.1813
2019-05-03T04:32:08.248Z,1011.2013
2019-05-03T04:33:07.651Z,1011.2029
2019-05-03T04:34:08.012Z,1011.1425
2019-05-03T04:35:07.808Z,1011.1751
2019-05-03T04:36:07.743Z,1011.1412
2019-05-03T04:37:07.826Z,1011.2818
2019-05-03T04:38:08.049Z,1011.2785
2019-05-03T04:39:08.112Z,1011.3109
2019-05-03T04:40:08.458Z,1011.3236
2019-05-03T04:40:56.660Z,1011.299
2019-05-03T04:41:56.917Z,1011.3379
2019-05-03T04:42:57.311Z,1011.2737
2019-05-03T04:43:57.175Z,1011.2803
2019-05-03T04:45:08.286Z,1011.2848
2019-05-03T04:46:07.456Z,1011.2644
2019-05-03T04:47:07.769Z,1011.2799
2019-05-03T04:48:07.963Z,1011.2337
2019-05-03T04:49:08.073Z,1011.2864
2019-05-03T04:50:08.004Z,1011.3356
2019-05-03T04:51:08.175Z,1011.3233
2019-05-03T04:52:08.049Z,1011.3303
2019-05-03T04:53:08.032Z,1011.2815
2019-05-03T04:54:08.425Z,1011.3045
2019-05-03T04:55:08.325Z,1011.3527
2019-05-03T04:56:08.175Z,1011.4243
2019-05-03T04:57:07.959Z,1011.3453
2019-05-03T04:58:08.491Z,1011.2603
2019-05-03T04:59:07.886Z,1011.3188
2019-05-03T05:00:11.169Z,1011.3409
2019-05-03T05:01:07.782Z,1011.367
2019-05-03T05:02:07.337Z,1011.3768
2019-05-03T05:03:06.959Z,1011.4079
2019-05-03T05:04:18.215Z,1011.4342
2019-05-03T05:05:17.600Z,1011.4628
2019-05-03T05:06:17.038Z,1011.4584
2019-05-03T05:07:27.472Z,1011.536
2019-05-03T05:08:27.010Z,1011.559
2019-05-03T05:09:38.322Z,1011.6031
2019-05-03T05:10:37.790Z,1011.5859
2019-05-03T05:11:37.162Z,1011.6395
2019-05-03T05:12:36.879Z,1011.5917
2019-05-03T05:12:48.707Z,1011.6063
2019-05-03T05:13:48.312Z,1011.5957
2019-05-03T05:14:47.845Z,1011.572
2019-05-03T05:15:47.384Z,1011.5934
2019-05-03T05:16:46.919Z,1011.597
2019-05-03T05:17:58.470Z,1011.6415
2019-05-03T05:18:57.823Z,1011.6464
2019-05-03T05:19:57.396Z,1011.6251
2019-05-03T05:20:56.792Z,1011.6084
2019-05-03T05:21:08.759Z,1011.6325
2019-05-03T05:22:08.253Z,1011.6112
2019-05-03T05:23:08.050Z,1011.6651
2019-05-03T05:24:07.500Z,1011.6774
2019-05-03T05:25:07.969Z,1011.6651
2019-05-03T05:26:07.272Z,1011.6948
2019-05-03T05:27:06.750Z,1011.6808
2019-05-03T05:27:18.632Z,1011.6448
2019-05-03T05:28:18.192Z,1011.7102
2019-05-03T05:29:17.549Z,1011.6765
2019-05-03T05:30:17.362Z,1011.7351
2019-05-03T05:31:16.882Z,1011.731
2019-05-03T05:32:28.328Z,1011.7368
2019-05-03T05:33:27.795Z,1011.7681
2019-05-03T05:34:27.243Z,1011.7743
2019-05-03T05:35:26.815Z,1011.8049
2019-05-03T05:35:38.693Z,1011.8668
2019-05-03T05:36:38.292Z,1011.8484
2019-05-03T05:37:26.765Z,1011.8386
2019-05-03T05:38:26.702Z,1011.882
2019-05-03T05:38:38.636Z,1011.8951
2019-05-03T05:39:27.393Z,1011.8442
2019-05-03T05:40:27.148Z,1011.8115
2019-05-03T05:41:26.921Z,1011.8613
2019-05-03T05:42:26.821Z,1011.827
2019-05-03T05:42:38.720Z,1011.8343
2019-05-03T05:43:26.740Z,1011.8179
2019-05-03T05:43:38.819Z,1011.849
2019-05-03T05:44:38.386Z,1011.8367
2019-05-03T05:45:37.916Z,1011.7748
2019-05-03T05:46:38.428Z,1011.7385
2019-05-03T05:47:37.931Z,1011.7586
2019-05-03T05:48:37.354Z,1011.7756
2019-05-03T05:49:36.916Z,1011.7722
2019-05-03T05:50:48.289Z,1011.7503
2019-05-03T05:51:47.795Z,1011.7329
2019-05-03T05:52:47.249Z,1011.752
2019-05-03T05:53:46.753Z,1011.783
2019-05-03T05:53:58.663Z,1011.7551
2019-05-03T05:54:58.092Z,1011.7504
2019-05-03T05:55:57.481Z,1011.8038
2019-05-03T05:56:57.028Z,1011.8383
2019-05-03T05:58:08.499Z,1011.8454
2019-05-03T05:59:07.805Z,1011.8124
2019-05-03T06:00:07.452Z,1011.7343
2019-05-03T06:01:06.852Z,1011.792
2019-05-03T06:01:18.749Z,1011.7985
2019-05-03T06:02:18.064Z,1011.7885
2019-05-03T06:03:17.600Z,1011.7801
2019-05-03T06:04:17.013Z,1011.7639
2019-05-03T06:05:16.732Z,1011.7522
2019-05-03T06:05:28.568Z,1011.8092
2019-05-03T06:06:28.148Z,1011.8203
2019-05-03T06:07:27.494Z,1011.8645
2019-05-03T06:08:26.831Z,1011.8703
2019-05-03T06:09:38.224Z,1011.8483
2019-05-03T06:10:37.631Z,1011.8229
2019-05-03T06:11:37.200Z,1011.7935
2019-05-03T06:12:36.711Z,1011.8439
2019-05-03T06:12:48.663Z,1011.8549
2019-05-03T06:13:37.239Z,1011.8189
2019-05-03T06:14:36.686Z,1011.8311
2019-05-03T06:14:48.593Z,1011.8046
2019-05-03T06:15:48.286Z,1011.875
2019-05-03T06:16:47.852Z,1011.8473
2019-05-03T06:17:48.137Z,1011.8666
2019-05-03T06:18:47.549Z,1011.884
2019-05-03T06:19:47.109Z,1011.9715
2019-05-03T06:20:46.709Z,1011.968
2019-05-03T06:20:58.637Z,1011.8872
2019-05-03T06:21:58.022Z,1011.8443
2019-05-03T06:22:58.045Z,1011.8626
2019-05-03T06:23:57.533Z,1011.8468
2019-05-03T06:24:56.952Z,1011.7966
2019-05-03T06:26:08.390Z,1011.8005
2019-05-03T06:27:07.818Z,1011.8174
2019-05-03T06:28:17.194Z,1011.8236
2019-05-03T06:29:07.538Z,1011.8378
2019-05-03T06:30:07.026Z,1011.8204
2019-05-03T06:30:17.918Z,1011.8713
2019-05-03T06:31:19.608Z,1011.8538
2019-05-03T06:32:17.915Z,1011.8676
2019-05-03T06:33:17.453Z,1011.9009
2019-05-03T06:34:16.921Z,1011.9255
2019-05-03T06:35:28.562Z,1011.8859
2019-05-03T06:36:28.045Z,1011.9396
2019-05-03T06:37:27.402Z,1011.9373
2019-05-03T06:38:26.774Z,1011.9124
2019-05-03T06:38:38.626Z,1011.9143
2019-05-03T06:39:38.100Z,1011.8993
2019-05-03T06:40:37.554Z,1011.9354
2019-05-03T06:41:37.123Z,1011.9365
2019-05-03T06:42:36.674Z,1012.0089
2019-05-03T06:42:54.071Z,1012.0106
2019-05-03T06:43:39.499Z,1011.9938
2019-05-03T06:44:28.562Z,1011.9612
2019-05-03T06:45:27.152Z,1012.0603
2019-05-03T06:46:30.135Z,1012.0662
2019-05-03T06:47:28.510Z,1012.0234
2019-05-03T06:48:31.838Z,1011.999
2019-05-03T06:49:17.075Z,1011.9857
2019-05-03T06:50:28.988Z,1012.0471
2019-05-03T06:51:27.958Z,1012.0551
2019-05-03T06:52:29.244Z,1011.9721
2019-05-03T06:53:27.776Z,1011.9511
2019-05-03T06:54:29.911Z,1011.9909
2019-05-03T06:55:27.927Z,1011.9567
2019-05-03T06:56:29.062Z,1011.9564
2019-05-03T06:57:27.894Z,1011.9887
2019-05-03T06:58:33.011Z,1011.9429
2019-05-03T06:59:27.847Z,1011.9554
2019-05-03T07:00:27.365Z,1011.9468
2019-05-03T07:01:27.201Z,1012.037
2019-05-03T07:02:28.538Z,1011.9386
2019-05-03T07:03:27.478Z,1011.9615
2019-05-03T07:04:27.088Z,1012.0017
2019-05-03T07:05:38.392Z,1011.9648
2019-05-03T07:06:40.523Z,1011.9595
2019-05-03T07:07:28.023Z,1011.9787
2019-05-03T07:08:27.134Z,1011.9768
2019-05-03T07:09:27.087Z,1011.954
2019-05-03T07:10:27.285Z,1011.9926
2019-05-03T07:11:27.330Z,1012.0021
2019-05-03T07:12:27.363Z,1012.0278
2019-05-03T07:13:27.142Z,1012.0499
2019-05-03T07:14:26.900Z,1012.0518
2019-05-03T07:15:38.475Z,1012.0568
2019-05-03T07:16:38.185Z,1012.0705
2019-05-03T07:17:37.913Z,1012.0268
2019-05-03T07:18:37.282Z,1012.0631
2019-05-03T07:19:36.977Z,1012.1032
2019-05-03T07:20:48.428Z,1012.0834
2019-05-03T07:21:47.845Z,1012.0765
2019-05-03T07:22:47.401Z,1012.0314
2019-05-03T07:23:47.126Z,1012.055
2019-05-03T07:24:46.650Z,1012.0303
2019-05-03T07:24:58.490Z,1012.0473
2019-05-03T07:25:57.842Z,1012.077
2019-05-03T07:26:59.080Z,1012.0505
2019-05-03T07:27:57.971Z,1011.9962
2019-05-03T07:28:57.416Z,1011.9809
2019-05-03T07:29:56.864Z,1012.001
2019-05-03T07:30:08.803Z,1012.0011
2019-05-03T07:31:08.356Z,1011.9891
2019-05-03T07:32:07.820Z,1011.97
2019-05-03T07:33:07.303Z,1012.0049
2019-05-03T07:34:06.808Z,1012.0515
2019-05-03T07:34:18.651Z,1012.0426
2019-05-03T07:35:18.113Z,1012.0388
2019-05-03T07:36:17.471Z,1012.0193
2019-05-03T07:37:17.030Z,1012.0867
2019-05-03T07:38:28.345Z,1012
2019-05-03T07:39:27.781Z,1011.9599
2019-05-03T07:40:27.232Z,1011.9907
2019-05-03T07:41:27.299Z,1011.9425
2019-05-03T07:41:38.752Z,1011.9753
2019-05-03T07:42:38.286Z,1011.9575
2019-05-03T07:43:37.713Z,1011.94
2019-05-03T07:44:37.215Z,1011.9575
2019-05-03T07:45:36.724Z,1011.971
2019-05-03T07:45:48.646Z,1011.9841
2019-05-03T07:46:48.112Z,1011.976
2019-05-03T07:47:47.588Z,1012.0129
2019-05-03T07:48:47.024Z,1012.0133
2019-05-03T07:49:58.495Z,1011.9954
2019-05-03T07:50:57.910Z,1012.0385
2019-05-03T07:51:57.326Z,1012.0722
2019-05-03T07:52:56.925Z,1012.0382
2019-05-03T07:53:56.637Z,1012.0887
2019-05-03T07:54:08.482Z,1012.0614
2019-05-03T07:55:07.944Z,1012.0668
2019-05-03T07:56:07.522Z,1012.0749
2019-05-03T07:57:07.038Z,1012.0711
2019-05-03T07:58:18.378Z,1012.0744
2019-05-03T07:59:17.817Z,1012.0695
2019-05-03T08:00:17.300Z,1012.0737
2019-05-03T08:01:16.836Z,1012.0759
2019-05-03T08:01:28.702Z,1012.0797
2019-05-03T08:02:28.141Z,1012.0301
2019-05-03T08:03:27.615Z,1012.0618
2019-05-03T08:04:27.098Z,1012.0582
2019-05-03T08:05:38.477Z,1012.0823
2019-05-03T08:06:37.944Z,1012.0651
2019-05-03T08:07:37.387Z,1012.1207
2019-05-03T08:08:36.783Z,1012.0779
2019-05-03T08:09:48.251Z,1012.1171
2019-05-03T08:10:47.702Z,1012.071
2019-05-03T08:11:47.050Z,1012.1034
2019-05-03T08:12:46.627Z,1012.1209
2019-05-03T08:12:58.520Z,1012.072
2019-05-03T08:13:58.008Z,1012.1095
2019-05-03T08:14:57.416Z,1012.1091
2019-05-03T08:15:56.977Z,1012.14
2019-05-03T08:17:08.266Z,1012.1306
2019-05-03T08:18:07.637Z,1012.0318
2019-05-03T08:19:07.262Z,1012.2161
2019-05-03T08:20:06.809Z,1012.1443
2019-05-03T08:20:18.659Z,1012.2217
2019-05-03T08:21:18.122Z,1012.1613
2019-05-03T08:22:17.699Z,1012.0793
2019-05-03T08:23:26.079Z,1012.1521
2019-05-03T08:24:17.391Z,1012.147
2019-05-03T08:25:16.762Z,1012.1065
2019-05-03T08:25:28.628Z,1012.1246
2019-05-03T08:26:28.382Z,1012.1475
2019-05-03T08:27:27.791Z,1012.1548
2019-05-03T08:28:27.235Z,1012.1322
2019-05-03T08:29:26.853Z,1012.1414
2019-05-03T08:29:38.730Z,1012.1239
2019-05-03T08:30:38.241Z,1012.1248
2019-05-03T08:31:37.712Z,1012.0797
2019-05-03T08:32:37.178Z,1012.0982
2019-05-03T08:33:36.645Z,1012.0569
2019-05-03T08:33:48.573Z,1012.0354
2019-05-03T08:34:47.966Z,1012.0159
2019-05-03T08:35:47.472Z,1012.0742
2019-05-03T08:36:47.062Z,1012.0548
2019-05-03T08:37:58.482Z,1012.0592
2019-05-03T08:38:57.812Z,1012.0303
2019-05-03T08:39:57.277Z,1011.9901
2019-05-03T08:40:56.859Z,1012.0228
2019-05-03T08:42:08.128Z,1012.0468
2019-05-03T08:43:07.633Z,1012.0522
2019-05-03T08:44:07.077Z,1011.982
2019-05-03T08:45:18.485Z,1012.015
2019-05-03T08:46:17.986Z,1012.0052
2019-05-03T08:47:17.418Z,1012.0187
2019-05-03T08:48:16.897Z,1012.2058
2019-05-03T08:48:28.735Z,1012.135
2019-05-03T08:49:17.347Z,1012.1035
2019-05-03T08:50:21.298Z,1012.0826
2019-05-03T08:51:17.507Z,1012.0842
2019-05-03T08:52:17.067Z,1012.07
2019-05-03T08:53:16.655Z,1012.0687
2019-05-03T08:53:28.544Z,1012.0635
2019-05-03T08:54:28.107Z,1012.0689
2019-05-03T08:55:27.531Z,1012.1707
2019-05-03T08:56:26.976Z,1012.0292
2019-05-03T08:57:38.412Z,1012.0097
2019-05-03T08:58:27.062Z,1012.0075
2019-05-03T08:59:38.567Z,1012.0298
2019-05-03T09:00:37.993Z,1012.0678
2019-05-03T09:01:39.374Z,1012.0379
2019-05-03T09:02:26.893Z,1012.0114
2019-05-03T09:03:38.512Z,1012.0395
2019-05-03T09:04:39.392Z,1011.9902
2019-05-03T09:05:38.326Z,1011.9395
2019-05-03T09:06:37.949Z,1011.8621
2019-05-03T09:07:37.339Z,1011.9386
2019-05-03T09:08:37.055Z,1011.9526
2019-05-03T09:09:48.277Z,1011.942
2019-05-03T09:10:47.636Z,1011.9501
2019-05-03T09:11:47.156Z,1011.9042
2019-05-03T09:12:46.707Z,1011.9068
2019-05-03T09:12:58.567Z,1011.9696
2019-05-03T09:13:57.916Z,1011.9089
2019-05-03T09:14:57.345Z,1011.9589
2019-05-03T09:15:56.864Z,1011.9173
2019-05-03T09:16:08.795Z,1011.9255
2019-05-03T09:17:08.275Z,1011.877
2019-05-03T09:18:07.753Z,1012.0042
2019-05-03T09:19:07.340Z,1011.8984
2019-05-03T09:20:06.785Z,1011.9346
2019-05-03T09:20:18.625Z,1011.8599
2019-05-03T09:21:18.107Z,1011.9165
2019-05-03T09:22:17.481Z,1011.9176
2019-05-03T09:23:16.994Z,1011.9695
2019-05-03T09:24:28.357Z,1012.027
2019-05-03T09:25:27.793Z,1011.9854
2019-05-03T09:26:29.448Z,1011.9851
2019-05-03T09:27:27.543Z,1011.9748
2019-05-03T09:28:29.119Z,1012.0206
2019-05-03T09:29:39.653Z,1011.9696
2019-05-03T09:30:27.943Z,1011.9753
2019-05-03T09:31:27.387Z,1011.9784
2019-05-03T09:32:26.803Z,1012.0238
2019-05-03T09:32:38.734Z,1011.9749
2019-05-03T09:33:38.210Z,1011.9483
2019-05-03T09:34:37.639Z,1011.9703
2019-05-03T09:35:37.142Z,1011.9459
2019-05-03T09:36:36.740Z,1012.0106
2019-05-03T09:36:48.580Z,1012.0178
2019-05-03T09:37:48.143Z,1012.0366
2019-05-03T09:38:47.713Z,1012.0778
2019-05-03T09:39:47.297Z,1012.0209
2019-05-03T09:40:46.723Z,1012.0449
2019-05-03T09:40:58.665Z,1012.0327
2019-05-03T09:41:58.165Z,1011.9941
2019-05-03T09:42:57.568Z,1011.9932
2019-05-03T09:43:57.001Z,1011.9935
2019-05-03T09:45:08.273Z,1011.9832
2019-05-03T09:46:07.791Z,1011.9376
2019-05-03T09:47:07.200Z,1012.0075
2019-05-03T09:48:06.762Z,1011.9577
2019-05-03T09:49:18.249Z,1011.8987
2019-05-03T09:50:17.690Z,1011.9053
2019-05-03T09:51:17.180Z,1011.917
2019-05-03T09:52:16.776Z,1011.8922
2019-05-03T09:52:28.665Z,1011.9185
2019-05-03T09:53:28.216Z,1011.9308
2019-05-03T09:54:27.568Z,1011.8812
2019-05-03T09:55:27.137Z,1011.8545
2019-05-03T09:56:26.693Z,1011.8554
2019-05-03T09:56:44.604Z,1011.8764
2019-05-03T09:57:27.085Z,1011.8654
2019-05-03T09:58:26.659Z,1011.9533
2019-05-03T09:58:38.501Z,1011.9417
2019-05-03T09:59:37.938Z,1011.9649
2019-05-03T10:00:37.291Z,1011.9728
2019-05-03T10:01:36.891Z,1011.8209
2019-05-03T10:02:48.220Z,1011.8768
2019-05-03T10:03:47.622Z,1011.9099
2019-05-03T10:04:47.207Z,1011.7739
2019-05-03T10:05:46.757Z,1011.8304
2019-05-03T10:05:58.606Z,1011.7826
2019-05-03T10:06:57.955Z,1011.8599
2019-05-03T10:07:57.454Z,1011.8467
2019-05-03T10:08:56.854Z,1011.8773
2019-05-03T10:09:08.773Z,1011.8302
2019-05-03T10:10:08.335Z,1011.7647
2019-05-03T10:11:08.046Z,1011.7832
2019-05-03T10:12:07.381Z,1011.8283
2019-05-03T10:13:14.099Z,1011.7819
2019-05-03T10:14:07.418Z,1011.8088
2019-05-03T10:15:06.929Z,1011.8331
2019-05-03T10:16:18.280Z,1011.7698
2019-05-03T10:17:17.648Z,1011.815
2019-05-03T10:18:17.111Z,1011.862
2019-05-03T10:19:37.543Z,1011.8518
2019-05-03T10:20:16.925Z,1011.89
2019-05-03T10:21:28.258Z,1011.8262
2019-05-03T10:22:27.620Z,1011.916
2019-05-03T10:23:27.066Z,1011.8492
2019-05-03T10:25:27.179Z,1011.9567
2019-05-03T10:26:38.422Z,1011.9343
2019-05-03T10:27:37.814Z,1011.9205
2019-05-03T10:28:37.356Z,1011.9687
2019-05-03T10:29:36.789Z,1011.8856
2019-05-03T10:29:48.631Z,1011.9054
2019-05-03T10:30:48.143Z,1011.94
2019-05-03T10:31:47.741Z,1011.9224
2019-05-03T10:32:47.204Z,1011.9015
2019-05-03T10:33:46.779Z,1011.8792
2019-05-03T10:33:58.702Z,1011.8591
2019-05-03T10:34:58.314Z,1011.806
2019-05-03T10:35:57.693Z,1011.782